createdAt,value
2023-04-21T00:00:50.413Z,9.50
2023-04-21T00:01:50.441Z,9.55
2023-04-21T00:02:50.534Z,9.54
2023-04-21T00:03:50.581Z,9.51
2023-04-21T00:04:50.500Z,9.46
2023-04-21T00:05:50.450Z,9.41
2023-04-21T00:06:50.382Z,9.48
2023-04-21T00:07:50.377Z,9.54
2023-04-21T00:08:50.356Z,9.40
2023-04-21T00:09:50.354Z,9.47
2023-04-21T00:10:50.325Z,9.51
2023-04-21T00:11:50.340Z,9.41
2023-04-21T00:12:50.302Z,9.47
2023-04-21T00:13:50.318Z,9.48
2023-04-21T00:14:50.316Z,9.48
2023-04-21T00:15:50.327Z,9.51
2023-04-21T00:16:50.304Z,9.48
2023-04-21T00:17:50.278Z,9.51
2023-04-21T00:18:50.240Z,9.44
2023-04-21T00:19:50.252Z,9.41
2023-04-21T00:20:50.250Z,9.55
2023-04-21T00:21:51.281Z,9.50
2023-04-21T00:22:50.245Z,9.48
2023-04-21T00:23:50.280Z,9.56
2023-04-21T00:24:50.215Z,9.56
2023-04-21T00:25:50.181Z,9.54
2023-04-21T00:26:50.197Z,9.56
2023-04-21T00:27:50.202Z,9.47
2023-04-21T00:28:50.179Z,9.50
2023-04-21T00:29:50.154Z,9.46
2023-04-21T00:30:50.145Z,9.54
2023-04-21T00:31:50.261Z,9.58
2023-04-21T00:32:50.169Z,9.54
2023-04-21T00:33:50.174Z,9.54
2023-04-21T00:34:50.119Z,9.48
2023-04-21T00:35:50.138Z,9.48
2023-04-21T00:36:50.120Z,9.58
2023-04-21T00:37:50.151Z,9.51
2023-04-21T00:38:50.125Z,9.62
2023-04-21T00:39:50.088Z,9.47
2023-04-21T00:40:50.069Z,9.51
2023-04-21T00:41:50.067Z,9.54
2023-04-21T00:42:50.744Z,9.47
2023-04-21T00:43:50.081Z,9.47
2023-04-21T00:44:50.120Z,9.56
2023-04-21T00:45:50.058Z,9.47
2023-04-21T00:46:50.095Z,9.55
2023-04-21T00:47:50.257Z,9.44
2023-04-21T00:48:50.026Z,9.46
2023-04-21T00:49:50.064Z,9.41
2023-04-21T00:50:50.016Z,9.55
2023-04-21T00:51:49.990Z,9.47
2023-04-21T00:52:49.991Z,9.46
2023-04-21T00:53:49.978Z,9.50
2023-04-21T00:54:50.771Z,9.54
2023-04-21T00:55:50.079Z,9.50
2023-04-21T00:56:49.990Z,9.43
2023-04-21T00:57:49.959Z,9.41
2023-04-21T00:58:49.948Z,9.39
2023-04-21T00:59:49.972Z,9.34
2023-04-21T01:00:50.080Z,9.23
2023-04-21T01:01:49.955Z,9.25
2023-04-21T01:02:50.148Z,9.26
2023-04-21T01:03:50.167Z,9.21
2023-04-21T01:04:49.961Z,9.21
2023-04-21T01:05:49.912Z,9.21
2023-04-21T01:06:49.917Z,9.22
2023-04-21T01:07:49.878Z,9.14
2023-04-21T01:08:49.911Z,9.16
2023-04-21T01:09:49.875Z,9.23
2023-04-21T01:10:50.755Z,9.08
2023-04-21T01:11:49.906Z,9.13
2023-04-21T01:12:49.863Z,9.08
2023-04-21T01:13:49.865Z,9.13
2023-04-21T01:14:49.828Z,9.06
2023-04-21T01:15:49.888Z,9.11
2023-04-21T01:16:49.872Z,9.11
2023-04-21T01:17:50.021Z,9.08
2023-04-21T01:18:49.803Z,9.06
2023-04-21T01:19:49.801Z,8.94
2023-04-21T01:20:49.817Z,8.94
2023-04-21T01:21:49.790Z,9.03
2023-04-21T01:22:49.936Z,9.10
2023-04-21T01:23:50.653Z,9.00
2023-04-21T01:24:50.652Z,9.10
2023-04-21T01:25:49.765Z,9.10
2023-04-21T01:26:49.755Z,9.18
2023-04-21T01:27:49.752Z,9.11
2023-04-21T01:28:49.736Z,9.14
2023-04-21T01:29:49.803Z,9.08
2023-04-21T01:30:49.716Z,9.16
2023-04-21T01:31:49.808Z,9.08
2023-04-21T01:32:49.737Z,9.11
2023-04-21T01:33:50.715Z,8.99
2023-04-21T01:34:49.694Z,9.00
2023-04-21T01:35:49.722Z,9.06
2023-04-21T01:36:50.262Z,9.06
2023-04-21T01:37:49.690Z,9.04
2023-04-21T01:38:49.664Z,9.03
2023-04-21T01:39:49.642Z,9.10
2023-04-21T01:40:49.650Z,9.06
2023-04-21T01:41:49.624Z,9.14
2023-04-21T01:42:49.672Z,9.11
2023-04-21T01:43:49.637Z,9.14
2023-04-21T01:44:49.679Z,9.11
2023-04-21T01:45:49.681Z,9.04
2023-04-21T01:46:49.645Z,9.10
2023-04-21T01:47:49.624Z,9.10
2023-04-21T01:48:49.623Z,9.16
2023-04-21T01:49:50.617Z,9.11
2023-04-21T01:50:49.578Z,9.04
2023-04-21T01:51:49.567Z,9.04
2023-04-21T01:52:49.561Z,8.97
2023-04-21T01:53:50.153Z,9.06
2023-04-21T01:54:49.576Z,9.02
2023-04-21T01:55:49.580Z,8.94
2023-04-21T01:56:49.575Z,9.06
2023-04-21T01:57:50.163Z,8.94
2023-04-21T01:58:49.524Z,9.00
2023-04-21T01:59:49.557Z,8.95
2023-04-21T02:00:49.508Z,8.97
2023-04-21T02:01:49.646Z,8.91
2023-04-21T02:02:49.572Z,8.91
2023-04-21T02:03:49.739Z,8.92
2023-04-21T02:04:49.491Z,8.97
2023-04-21T02:05:49.467Z,8.94
2023-04-21T02:06:49.447Z,8.92
2023-04-21T02:07:49.450Z,9.04
2023-04-21T02:08:49.441Z,9.03
2023-04-21T02:09:49.452Z,8.94
2023-04-21T02:10:49.445Z,8.94
2023-04-21T02:11:50.291Z,8.99
2023-04-21T02:12:49.464Z,8.91
2023-04-21T02:13:50.306Z,9.03
2023-04-21T02:14:49.401Z,8.99
2023-04-21T02:15:50.420Z,8.94
2023-04-21T02:16:49.459Z,8.97
2023-04-21T02:17:49.454Z,8.97
2023-04-21T02:18:49.354Z,9.00
2023-04-21T02:19:50.152Z,8.95
2023-04-21T02:20:49.352Z,8.94
2023-04-21T02:21:49.325Z,8.92
2023-04-21T02:22:49.356Z,9.04
2023-04-21T02:23:49.336Z,8.94
2023-04-21T02:24:49.297Z,8.97
2023-04-21T02:25:49.304Z,9.03
2023-04-21T02:26:49.333Z,8.97
2023-04-21T02:27:49.305Z,8.95
2023-04-21T02:28:49.280Z,8.92
2023-04-21T02:29:49.288Z,8.92
2023-04-21T02:30:49.395Z,8.91
2023-04-21T02:32:00.829Z,8.95
2023-04-21T02:32:51.345Z,9.00
2023-04-21T02:33:49.252Z,9.04
2023-04-21T02:34:50.158Z,9.00
2023-04-21T02:35:49.240Z,8.95
2023-04-21T02:36:49.225Z,8.92
2023-04-21T02:37:49.239Z,8.99
2023-04-21T02:38:49.202Z,8.97
2023-04-21T02:39:49.203Z,8.91
2023-04-21T02:40:49.207Z,8.94
2023-04-21T02:41:49.175Z,8.92
2023-04-21T02:42:49.189Z,8.88
2023-04-21T02:43:50.166Z,8.94
2023-04-21T02:44:49.165Z,8.91
2023-04-21T02:45:49.146Z,8.91
2023-04-21T02:46:49.213Z,8.95
2023-04-21T02:47:49.182Z,8.94
2023-04-21T02:48:49.141Z,8.84
2023-04-21T02:49:49.137Z,8.92
2023-04-21T02:50:49.805Z,8.94
2023-04-21T02:51:49.116Z,8.94
2023-04-21T02:52:49.155Z,8.89
2023-04-21T02:53:49.074Z,8.85
2023-04-21T02:54:49.094Z,8.85
2023-04-21T02:55:49.073Z,8.89
2023-04-21T02:56:49.075Z,8.81
2023-04-21T02:57:49.099Z,8.89
2023-04-21T02:58:49.053Z,8.87
2023-04-21T02:59:49.046Z,8.87
2023-04-21T03:00:49.082Z,8.88
2023-04-21T03:01:49.046Z,8.88
2023-04-21T03:02:49.194Z,8.81
2023-04-21T03:03:49.073Z,8.84
2023-04-21T03:04:49.051Z,8.85
2023-04-21T03:05:49.024Z,8.74
2023-04-21T03:06:48.980Z,8.87
2023-04-21T03:07:48.995Z,8.88
2023-04-21T03:08:48.957Z,8.76
2023-04-21T03:09:48.962Z,8.88
2023-04-21T03:10:48.984Z,8.89
2023-04-21T03:11:48.999Z,8.92
2023-04-21T03:12:48.941Z,8.95
2023-04-21T03:13:48.992Z,8.84
2023-04-21T03:14:48.939Z,8.87
2023-04-21T03:15:48.950Z,8.81
2023-04-21T03:17:21.682Z,8.87
2023-04-21T03:17:48.950Z,8.91
2023-04-21T03:18:48.898Z,8.85
2023-04-21T03:19:48.893Z,8.88
2023-04-21T03:20:48.906Z,8.91
2023-04-21T03:21:48.922Z,8.84
2023-04-21T03:22:48.894Z,8.85
2023-04-21T03:23:49.795Z,8.74
2023-04-21T03:24:48.850Z,8.85
2023-04-21T03:25:48.865Z,8.84
2023-04-21T03:26:48.866Z,8.82
2023-04-21T03:27:48.867Z,8.81
2023-04-21T03:28:49.841Z,8.78
2023-04-21T03:29:48.849Z,8.76
2023-04-21T03:30:48.897Z,8.71
2023-04-21T03:31:48.864Z,8.84
2023-04-21T03:32:48.845Z,8.76
2023-04-21T03:33:49.689Z,8.74
2023-04-21T03:34:49.779Z,8.78
2023-04-21T03:35:48.835Z,8.81
2023-04-21T03:36:48.801Z,8.69
2023-04-21T03:37:48.802Z,8.69
2023-04-21T03:38:48.788Z,8.66
2023-04-21T03:39:48.789Z,8.73
2023-04-21T03:40:48.801Z,8.74
2023-04-21T03:41:48.735Z,8.81
2023-04-21T03:42:48.723Z,8.82
2023-04-21T03:43:48.711Z,8.87
2023-04-21T03:44:48.743Z,8.87
2023-04-21T03:45:48.794Z,8.91
2023-04-21T03:46:48.696Z,8.94
2023-04-21T04:02:51.827Z,8.63
2023-04-21T04:03:51.716Z,8.61
2023-04-21T04:04:51.718Z,8.61
2023-04-21T04:05:52.761Z,8.60
2023-04-21T04:06:52.731Z,8.73
2023-04-21T04:07:52.741Z,8.67
2023-04-21T04:08:52.715Z,8.66
2023-04-21T04:09:52.721Z,8.67
2023-04-21T04:10:52.703Z,8.66
2023-04-21T04:11:52.690Z,8.73
2023-04-21T04:12:52.696Z,8.66
2023-04-21T04:13:52.679Z,8.76
2023-04-21T04:14:52.664Z,8.82
2023-04-21T04:15:52.715Z,8.76
2023-04-21T04:16:52.662Z,8.99
2023-04-21T04:17:52.731Z,9.00
2023-04-21T04:18:52.654Z,8.94
2023-04-21T04:19:52.657Z,9.13
2023-04-21T04:20:52.638Z,9.08
2023-04-21T04:21:52.624Z,9.08
2023-04-21T04:22:52.629Z,9.11
2023-04-21T04:23:52.596Z,9.13
2023-04-21T04:24:52.628Z,9.18
2023-04-21T04:25:52.566Z,9.08
2023-04-21T04:26:52.580Z,9.18
2023-04-21T04:27:52.582Z,9.23
2023-04-21T04:28:52.563Z,9.28
2023-04-21T04:29:52.567Z,9.21
2023-04-21T04:30:53.371Z,9.31
2023-04-21T04:31:53.348Z,9.37
2023-04-21T04:32:52.560Z,9.28
2023-04-21T04:33:54.979Z,9.36
2023-04-21T04:34:53.526Z,9.40
2023-04-21T04:35:52.515Z,9.40
2023-04-21T04:36:52.505Z,9.41
2023-04-21T04:37:52.519Z,9.39
2023-04-21T04:38:52.497Z,9.54
2023-04-21T04:39:52.465Z,9.48
2023-04-21T04:40:52.531Z,9.44
2023-04-21T04:41:52.469Z,9.51
2023-04-21T04:42:52.509Z,9.58
2023-04-21T04:43:52.446Z,9.47
2023-04-21T04:44:52.421Z,9.48
2023-04-21T04:45:52.406Z,9.55
2023-04-21T04:46:53.449Z,9.61
2023-04-21T04:47:52.501Z,9.54
2023-04-21T04:48:52.402Z,9.59
2023-04-21T04:49:52.394Z,9.68
2023-04-21T04:50:52.376Z,9.62
2023-04-21T04:51:52.376Z,9.68
2023-04-21T04:52:52.456Z,9.59
2023-04-21T04:53:52.352Z,9.61
2023-04-21T04:54:52.360Z,9.66
2023-04-21T04:55:52.359Z,9.69
2023-04-21T04:56:52.330Z,9.64
2023-04-21T04:57:52.324Z,9.74
2023-04-21T04:58:52.348Z,9.65
2023-04-21T04:59:52.312Z,9.77
2023-04-21T05:00:52.294Z,9.66
2023-04-21T05:01:52.317Z,9.77
2023-04-21T05:02:52.411Z,9.86
2023-04-21T05:03:52.383Z,9.77
2023-04-21T05:04:52.412Z,9.77
2023-04-21T05:05:52.266Z,9.79
2023-04-21T05:06:52.254Z,9.76
2023-04-21T05:07:52.249Z,9.80
2023-04-21T05:08:52.261Z,9.89
2023-04-21T05:09:52.253Z,9.94
2023-04-21T05:10:52.221Z,9.97
2023-04-21T05:11:52.211Z,10.04
2023-04-21T05:12:52.192Z,10.07
2023-04-21T05:13:52.259Z,10.09
2023-04-21T05:14:52.237Z,10.20
2023-04-21T05:15:52.198Z,10.38
2023-04-21T05:16:52.252Z,10.57
2023-04-21T05:17:52.210Z,10.74
2023-04-21T05:18:52.162Z,10.61
2023-04-21T05:19:52.170Z,10.59
2023-04-21T05:20:52.195Z,10.51
2023-04-21T05:21:52.140Z,10.23
2023-04-21T05:22:52.141Z,10.25
2023-04-21T05:23:52.163Z,10.25
2023-04-21T05:24:52.134Z,10.25
2023-04-21T05:25:52.196Z,10.16
2023-04-21T05:26:52.156Z,10.17
2023-04-21T05:27:52.112Z,10.35
2023-04-21T05:28:52.082Z,10.23
2023-04-21T05:29:52.069Z,10.40
2023-04-21T05:30:52.091Z,10.31
2023-04-21T05:31:52.121Z,10.35
2023-04-21T05:32:52.103Z,10.44
2023-04-21T05:33:52.084Z,10.28
2023-04-21T05:34:52.026Z,10.25
2023-04-21T05:35:52.051Z,10.22
2023-04-21T05:36:52.066Z,10.28
2023-04-21T05:37:52.119Z,10.22
2023-04-21T05:38:52.011Z,10.19
2023-04-21T05:39:52.009Z,10.19
2023-04-21T05:40:51.976Z,10.17
2023-04-21T05:41:51.994Z,10.15
2023-04-21T05:42:51.971Z,10.22
2023-04-21T05:43:52.076Z,10.20
2023-04-21T05:44:51.970Z,10.15
2023-04-21T05:45:51.959Z,10.12
2023-04-21T05:46:51.994Z,10.12
2023-04-21T05:47:52.053Z,10.15
2023-04-21T05:48:51.947Z,10.15
2023-04-21T05:49:51.917Z,10.16
2023-04-21T05:50:51.928Z,10.15
2023-04-21T05:51:51.970Z,10.09
2023-04-21T05:52:51.971Z,10.17
2023-04-21T05:53:51.922Z,10.15
2023-04-21T05:54:51.882Z,10.12
2023-04-21T05:55:51.890Z,10.13
2023-04-21T05:56:51.878Z,10.17
2023-04-21T05:57:51.874Z,10.19
2023-04-21T05:58:51.851Z,10.28
2023-04-21T05:59:51.855Z,10.42
2023-04-21T06:00:51.847Z,10.69
2023-04-21T06:01:51.817Z,10.76
2023-04-21T06:02:52.064Z,10.93
2023-04-21T06:03:51.901Z,11.08
2023-04-21T06:04:51.928Z,11.44
2023-04-21T06:05:51.883Z,11.41
2023-04-21T06:06:51.871Z,11.55
2023-04-21T06:07:51.826Z,11.50
2023-04-21T06:08:51.803Z,11.63
2023-04-21T06:09:51.835Z,11.62
2023-04-21T06:10:51.828Z,11.50
2023-04-21T06:11:51.774Z,11.52
2023-04-21T06:12:52.367Z,11.70
2023-04-21T06:13:51.786Z,11.87
2023-04-21T06:14:51.761Z,12.07
2023-04-21T06:15:51.767Z,12.39
2023-04-21T06:16:51.727Z,12.87
2023-04-21T06:17:51.721Z,13.04
2023-04-21T06:18:51.711Z,13.44
2023-04-21T06:19:51.724Z,13.56
2023-04-21T06:20:51.687Z,13.75
2023-04-21T06:21:51.678Z,13.56
2023-04-21T06:22:51.681Z,13.38
2023-04-21T06:23:51.647Z,13.01
2023-04-21T06:24:51.657Z,12.85
2023-04-21T06:25:51.664Z,12.55
2023-04-21T06:26:51.657Z,12.28
2023-04-21T06:27:51.633Z,11.91
2023-04-21T06:28:51.610Z,11.75
2023-04-21T06:29:51.626Z,11.54
2023-04-21T06:30:51.616Z,11.40
2023-04-21T06:31:51.699Z,11.29
2023-04-21T06:32:51.624Z,11.19
2023-04-21T06:33:51.593Z,11.19
2023-04-21T06:34:51.576Z,11.29
2023-04-21T06:35:51.584Z,11.37
2023-04-21T06:36:51.547Z,11.54
2023-04-21T06:37:51.575Z,11.59
2023-04-21T06:38:51.529Z,11.80
2023-04-21T06:39:51.543Z,11.87
2023-04-21T06:40:51.553Z,12.07
2023-04-21T06:41:51.522Z,12.12
2023-04-21T06:42:51.505Z,12.04
2023-04-21T06:43:51.520Z,12.04
2023-04-21T06:44:51.485Z,12.00
2023-04-21T06:45:51.513Z,12.13
2023-04-21T06:46:51.509Z,12.22
2023-04-21T06:47:51.551Z,12.06
2023-04-21T06:48:51.460Z,11.83
2023-04-21T06:49:51.450Z,12.03
2023-04-21T06:50:51.491Z,12.04
2023-04-21T06:51:51.433Z,11.90
2023-04-21T06:52:51.439Z,11.83
2023-04-21T06:53:51.422Z,11.75
2023-04-21T06:54:51.419Z,11.81
2023-04-21T06:55:51.428Z,11.87
2023-04-21T06:56:51.439Z,11.94
2023-04-21T06:57:51.441Z,11.88
2023-04-21T06:58:51.398Z,11.78
2023-04-21T06:59:51.382Z,11.84
2023-04-21T07:00:51.450Z,11.83
2023-04-21T07:01:51.356Z,11.91
2023-04-21T07:02:51.520Z,12.10
2023-04-21T07:03:51.374Z,12.02
2023-04-21T07:04:51.405Z,12.09
2023-04-21T07:05:51.342Z,12.22
2023-04-21T07:06:51.364Z,12.35
2023-04-21T07:07:51.296Z,12.53
2023-04-21T07:08:51.346Z,12.43
2023-04-21T07:09:51.283Z,12.32
2023-04-21T07:10:51.288Z,12.49
2023-04-21T07:11:51.289Z,12.64
2023-04-21T07:12:51.306Z,12.86
2023-04-21T07:13:51.272Z,12.98
2023-04-21T07:14:51.254Z,13.27
2023-04-21T07:15:51.262Z,13.30
2023-04-21T07:16:51.297Z,13.20
2023-04-21T07:17:51.340Z,13.09
2023-04-21T07:18:51.244Z,13.11
2023-04-21T07:19:51.287Z,13.57
2023-04-21T07:20:51.229Z,13.74
2023-04-21T07:21:51.239Z,14.08
2023-04-21T07:22:51.196Z,14.58
2023-04-21T07:23:51.259Z,15.11
2023-04-21T07:24:51.450Z,15.52
2023-04-21T07:25:51.158Z,15.73
2023-04-21T07:26:51.140Z,15.75
2023-04-21T07:27:51.154Z,16.04
2023-04-21T07:28:51.143Z,15.98
2023-04-21T07:29:51.170Z,16.01
2023-04-21T07:30:51.217Z,16.10
2023-04-21T07:31:51.116Z,16.31
2023-04-21T07:32:51.123Z,16.36
2023-04-21T07:33:51.132Z,16.10
2023-04-21T07:34:51.112Z,16.08
2023-04-21T07:35:51.095Z,16.02
2023-04-21T07:36:51.072Z,16.29
2023-04-21T07:37:51.132Z,16.04
2023-04-21T07:38:51.169Z,15.83
2023-04-21T07:39:51.081Z,15.59
2023-04-21T07:40:51.177Z,15.88
2023-04-21T07:41:51.032Z,16.00
2023-04-21T07:42:51.041Z,15.94
2023-04-21T07:43:53.180Z,15.64
2023-04-21T07:44:52.021Z,15.44
2023-04-21T07:45:51.068Z,15.33
2023-04-21T07:46:51.019Z,15.33
2023-04-21T07:47:51.029Z,15.42
2023-04-21T07:48:50.998Z,15.52
2023-04-21T07:49:50.980Z,15.46
2023-04-21T07:50:50.994Z,15.67
2023-04-21T07:51:51.104Z,15.57
2023-04-21T07:52:50.962Z,15.64
2023-04-21T07:53:51.178Z,15.64
2023-04-21T07:54:50.935Z,15.75
2023-04-21T07:55:50.935Z,15.94
2023-04-21T07:57:22.874Z,15.57
2023-04-21T07:57:50.929Z,15.35
2023-04-21T07:58:50.900Z,15.57
2023-04-21T07:59:50.971Z,15.59
2023-04-21T08:00:51.098Z,16.17
2023-04-21T08:01:50.901Z,16.57
2023-04-21T08:02:51.899Z,17.12
2023-04-21T08:03:50.897Z,17.85
2023-04-21T08:04:50.930Z,18.40
2023-04-21T08:05:51.166Z,18.34
2023-04-21T08:06:50.877Z,17.86
2023-04-21T08:07:50.865Z,18.13
2023-04-21T08:08:50.839Z,18.68
2023-04-21T08:09:50.841Z,18.43
2023-04-21T08:10:50.817Z,17.87
2023-04-21T08:11:50.820Z,18.23
2023-04-21T08:12:50.830Z,18.20
2023-04-21T08:13:50.827Z,18.18
2023-04-21T08:14:50.821Z,18.29
2023-04-21T08:15:50.890Z,18.44
2023-04-21T08:16:50.977Z,18.86
2023-04-21T08:17:50.840Z,19.36
2023-04-21T08:18:50.797Z,19.14
2023-04-21T08:19:50.795Z,18.95
2023-04-21T08:20:50.754Z,18.89
2023-04-21T08:21:50.814Z,19.40
2023-04-21T08:22:50.752Z,19.55
2023-04-21T08:23:50.778Z,19.48
2023-04-21T08:24:50.736Z,19.09
2023-04-21T08:25:50.725Z,19.04
2023-04-21T08:26:50.693Z,19.29
2023-04-21T08:27:50.717Z,19.26
2023-04-21T08:28:50.698Z,19.16
2023-04-21T08:29:50.707Z,19.27
2023-04-21T08:30:50.706Z,19.07
2023-04-21T08:31:50.724Z,19.19
2023-04-21T08:32:50.760Z,19.02
2023-04-21T08:34:01.167Z,19.21
2023-04-21T08:34:52.658Z,19.77
2023-04-21T08:36:02.385Z,19.34
2023-04-21T08:36:52.655Z,19.70
2023-04-21T08:37:51.671Z,19.76
2023-04-21T08:38:51.671Z,19.55
2023-04-21T08:39:50.631Z,19.22
2023-04-21T08:40:50.597Z,18.90
2023-04-21T08:41:50.628Z,19.44
2023-04-21T08:42:50.585Z,20.06
2023-04-21T08:43:50.579Z,20.18
2023-04-21T08:44:50.579Z,20.03
2023-04-21T08:45:50.604Z,20.59
2023-04-21T08:46:50.606Z,20.34
2023-04-21T08:47:50.565Z,20.78
2023-04-21T08:48:51.398Z,21.32
2023-04-21T08:49:50.544Z,20.93
2023-04-21T08:50:50.526Z,20.22
2023-04-21T08:51:50.542Z,20.06
2023-04-21T08:52:50.520Z,20.22
2023-04-21T08:53:50.524Z,20.92
2023-04-21T08:54:50.492Z,20.51
2023-04-21T08:55:59.592Z,19.56
2023-04-21T08:56:58.936Z,18.99
2023-04-21T08:57:51.507Z,19.54
2023-04-21T08:58:50.525Z,19.71
2023-04-21T08:59:50.456Z,19.81
2023-04-21T09:00:50.499Z,20.06
2023-04-21T09:01:50.532Z,19.58
2023-04-21T09:02:59.421Z,18.37
2023-04-21T09:03:52.660Z,18.77
2023-04-21T09:04:50.862Z,19.39
2023-04-21T09:05:50.710Z,19.49
2023-04-21T09:06:50.464Z,19.54
2023-04-21T09:07:50.398Z,18.95
2023-04-21T09:08:50.397Z,19.36
2023-04-21T09:09:50.375Z,19.79
2023-04-21T09:10:51.242Z,19.44
2023-04-21T09:11:50.359Z,19.89
2023-04-21T09:12:50.388Z,19.85
2023-04-21T09:13:50.373Z,19.22
2023-04-21T09:14:50.386Z,19.30
2023-04-21T09:15:50.353Z,19.70
2023-04-21T09:16:50.337Z,19.33
2023-04-21T09:17:50.388Z,18.58
2023-04-21T09:18:50.345Z,18.19
2023-04-21T09:19:50.381Z,18.38
2023-04-21T09:20:50.327Z,18.41
2023-04-21T09:21:50.305Z,18.29
2023-04-21T09:22:50.330Z,18.86
2023-04-21T09:23:50.366Z,18.95
2023-04-21T09:24:50.254Z,19.14
2023-04-21T09:25:50.259Z,18.84
2023-04-21T09:26:50.244Z,18.49
2023-04-21T09:27:50.241Z,18.44
2023-04-21T09:28:50.251Z,18.33
2023-04-21T09:29:50.228Z,18.23
2023-04-21T09:30:50.264Z,17.83
2023-04-21T09:31:50.271Z,17.97
2023-04-21T09:32:50.257Z,18.40
2023-04-21T09:33:57.662Z,18.88
2023-04-21T09:34:52.226Z,18.65
2023-04-21T09:35:50.205Z,18.25
2023-04-21T09:36:50.191Z,18.20
2023-04-21T09:37:50.171Z,18.18
2023-04-21T09:38:50.227Z,18.08
2023-04-21T09:40:03.668Z,18.11
2023-04-21T09:40:52.169Z,18.11
2023-04-21T09:41:50.131Z,17.95
2023-04-21T09:42:50.112Z,17.78
2023-04-21T09:43:50.182Z,18.40
2023-04-21T09:44:55.380Z,18.62
2023-04-21T09:45:52.112Z,18.66
2023-04-21T09:46:50.352Z,18.43
2023-04-21T09:47:50.124Z,19.04
2023-04-21T09:48:50.049Z,19.11
2023-04-21T09:49:50.121Z,19.27
2023-04-21T09:52:16.715Z,19.55
2023-04-21T09:52:52.039Z,19.59
2023-04-21T09:53:50.037Z,19.29
2023-04-21T09:54:50.062Z,19.19
2023-04-21T09:55:50.034Z,18.98
2023-04-21T09:56:50.042Z,19.09
2023-04-21T09:57:50.106Z,19.62
2023-04-21T09:58:50.098Z,19.84
2023-04-21T09:59:49.991Z,19.45
2023-04-21T10:00:50.013Z,19.04
2023-04-21T10:01:50.029Z,18.86
2023-04-21T10:02:50.148Z,18.66
2023-04-21T10:03:50.125Z,18.49
2023-04-21T10:04:50.170Z,18.20
2023-04-21T10:05:50.007Z,18.00
2023-04-21T10:06:49.936Z,17.89
2023-04-21T10:07:49.933Z,17.79
2023-04-21T10:08:49.908Z,17.85
2023-04-21T10:09:49.937Z,17.79
2023-04-21T10:10:49.896Z,17.80
2023-04-21T10:11:49.897Z,17.89
2023-04-21T10:12:49.897Z,18.16
2023-04-21T10:13:49.871Z,18.20
2023-04-21T10:14:49.969Z,18.80
2023-04-21T10:15:49.986Z,19.29
2023-04-21T10:16:49.886Z,19.26
2023-04-21T10:17:49.897Z,19.54
2023-04-21T10:18:49.866Z,19.51
2023-04-21T10:19:49.825Z,19.29
2023-04-21T10:21:21.772Z,19.00
2023-04-21T10:22:22.856Z,18.83
2023-04-21T10:23:21.762Z,18.99
2023-04-21T10:24:22.502Z,19.02
2023-04-21T10:25:22.490Z,18.96
2023-04-21T10:25:49.789Z,18.77
2023-04-21T10:27:21.740Z,18.50
2023-04-21T10:27:49.847Z,18.56
2023-04-21T10:29:22.531Z,18.49
2023-04-21T10:29:56.704Z,18.65
2023-04-21T10:30:51.767Z,18.80
2023-04-21T10:31:49.792Z,18.90
2023-04-21T10:32:49.770Z,19.21
2023-04-21T10:33:49.743Z,18.96
2023-04-21T10:34:49.732Z,18.62
2023-04-21T10:35:49.716Z,18.47
2023-04-21T10:36:49.713Z,18.63
2023-04-21T10:37:49.695Z,18.65
2023-04-21T10:38:49.700Z,18.88
2023-04-21T10:39:49.723Z,19.00
2023-04-21T10:40:49.680Z,19.11
2023-04-21T10:41:49.661Z,19.15
2023-04-21T10:42:49.675Z,19.18
2023-04-21T10:43:50.010Z,19.19
2023-04-21T10:44:50.669Z,19.49
2023-04-21T10:45:49.648Z,19.48
2023-04-21T10:46:49.647Z,19.47
2023-04-21T10:47:49.739Z,19.56
2023-04-21T10:48:49.650Z,19.64
2023-04-21T10:50:21.547Z,19.39
2023-04-21T10:50:49.628Z,19.37
2023-04-21T10:51:49.673Z,19.64
2023-04-21T10:52:49.598Z,19.82
2023-04-21T10:53:49.651Z,19.56
2023-04-21T10:54:49.580Z,19.26
2023-04-21T10:55:49.595Z,19.18
2023-04-21T10:56:49.557Z,18.95
2023-04-21T10:57:49.592Z,18.68
2023-04-21T10:58:49.575Z,18.83
2023-04-21T10:59:49.592Z,19.16
2023-04-21T11:00:49.606Z,19.26
2023-04-21T11:01:49.522Z,19.63
2023-04-21T11:02:49.606Z,19.55
2023-04-21T11:03:49.704Z,19.37
2023-04-21T11:04:49.739Z,19.31
2023-04-21T11:05:49.484Z,19.00
2023-04-21T11:06:49.486Z,19.00
2023-04-21T11:07:49.698Z,18.93
2023-04-21T11:08:49.471Z,19.00
2023-04-21T11:09:49.483Z,18.93
2023-04-21T11:10:49.534Z,18.90
2023-04-21T11:11:50.144Z,19.18
2023-04-21T11:12:50.132Z,19.40
2023-04-21T11:13:49.431Z,19.45
2023-04-21T11:14:50.171Z,19.48
2023-04-21T11:15:49.453Z,19.56
2023-04-21T11:16:49.414Z,19.55
2023-04-21T11:17:49.451Z,19.64
2023-04-21T11:18:49.379Z,20.06
2023-04-21T11:19:50.055Z,20.13
2023-04-21T11:20:49.379Z,20.31
2023-04-21T11:21:49.360Z,20.34
2023-04-21T11:22:50.152Z,20.44
2023-04-21T11:23:49.370Z,20.31
2023-04-21T11:24:49.345Z,20.55
2023-04-21T11:25:50.860Z,20.48
2023-04-21T11:26:50.375Z,20.37
2023-04-21T11:27:49.323Z,20.56
2023-04-21T11:28:49.330Z,20.60
2023-04-21T11:29:49.333Z,20.88
2023-04-21T11:30:50.205Z,20.87
2023-04-21T11:31:49.299Z,21.20
2023-04-21T11:32:49.287Z,21.02
2023-04-21T11:33:49.264Z,20.72
2023-04-21T11:34:49.265Z,20.80
2023-04-21T11:35:49.277Z,20.95
2023-04-21T11:36:49.283Z,20.84
2023-04-21T11:37:49.246Z,20.93
2023-04-21T11:38:49.292Z,21.09
2023-04-21T11:39:49.264Z,21.21
2023-04-21T11:40:49.224Z,21.07
2023-04-21T11:41:49.232Z,20.85
2023-04-21T11:42:49.206Z,20.60
2023-04-21T11:43:49.191Z,20.24
2023-04-21T11:44:49.187Z,20.51
2023-04-21T11:45:49.248Z,20.93
2023-04-21T11:46:49.486Z,20.85
2023-04-21T11:47:49.238Z,21.03
2023-04-21T11:48:49.203Z,21.15
2023-04-21T11:49:49.187Z,21.02
2023-04-21T11:50:49.197Z,20.50
2023-04-21T11:51:49.161Z,20.26
2023-04-21T11:52:49.140Z,20.50
2023-04-21T11:53:49.137Z,21.06
2023-04-21T11:54:49.135Z,21.54
2023-04-21T11:55:49.114Z,20.93
2023-04-21T11:56:49.112Z,21.25
2023-04-21T11:57:49.135Z,21.62
2023-04-21T11:58:49.079Z,21.66
2023-04-21T11:59:49.090Z,20.99
2023-04-21T12:00:49.094Z,21.36
2023-04-21T12:01:49.055Z,21.50
2023-04-21T12:02:49.150Z,21.52
2023-04-21T12:03:49.225Z,21.60
2023-04-21T12:04:49.188Z,21.76
2023-04-21T12:05:49.085Z,21.89
2023-04-21T12:06:49.046Z,21.58
2023-04-21T12:07:49.020Z,21.14
2023-04-21T12:08:49.042Z,20.55
2023-04-21T12:09:49.031Z,20.69
2023-04-21T12:10:49.008Z,20.51
2023-04-21T12:11:49.735Z,20.39
2023-04-21T12:12:49.968Z,20.32
2023-04-21T12:13:48.974Z,20.19
2023-04-21T12:14:49.020Z,20.43
2023-04-21T12:15:49.085Z,20.14
2023-04-21T12:16:49.071Z,20.21
2023-04-21T12:17:49.045Z,20.41
2023-04-21T12:18:48.996Z,20.16
2023-04-21T12:19:48.939Z,20.25
2023-04-21T12:20:48.898Z,20.14
2023-04-21T12:21:48.929Z,19.94
2023-04-21T12:22:48.903Z,19.86
2023-04-21T12:23:48.928Z,20.16
2023-04-21T12:24:48.898Z,20.31
2023-04-21T12:25:48.870Z,20.34
2023-04-21T12:26:48.884Z,20.21
2023-04-21T12:27:48.873Z,20.04
2023-04-21T12:28:48.874Z,20.25
2023-04-21T12:29:49.043Z,19.88
2023-04-21T12:30:48.857Z,19.89
2023-04-21T12:31:49.006Z,19.99
2023-04-21T12:32:48.970Z,20.06
2023-04-21T12:33:48.841Z,20.22
2023-04-21T12:34:48.817Z,20.19
2023-04-21T12:35:48.805Z,20.11
2023-04-21T12:36:48.815Z,20.11
2023-04-21T12:37:48.838Z,19.71
2023-04-21T12:38:48.801Z,19.55
2023-04-21T12:39:48.802Z,19.63
2023-04-21T12:40:48.825Z,19.58
2023-04-21T12:41:48.841Z,19.56
2023-04-21T12:42:48.825Z,19.58
2023-04-21T12:43:48.747Z,19.62
2023-04-21T12:44:48.753Z,19.76
2023-04-21T12:45:48.790Z,19.76
2023-04-21T12:46:48.805Z,19.76
2023-04-21T12:47:48.761Z,19.67
2023-04-21T12:48:48.732Z,19.55
2023-04-21T12:49:48.714Z,19.62
2023-04-21T12:50:48.766Z,19.62
2023-04-21T12:51:48.750Z,19.63
2023-04-21T12:52:48.693Z,19.71
2023-04-21T12:53:48.671Z,19.47
2023-04-21T12:54:48.690Z,19.45
2023-04-21T12:56:01.001Z,19.76
2023-04-21T12:56:51.679Z,19.74
2023-04-21T12:57:48.670Z,19.91
2023-04-21T12:58:48.634Z,19.84
2023-04-21T12:59:48.694Z,20.09
2023-04-21T13:00:48.703Z,20.16
2023-04-21T13:01:48.762Z,19.79
2023-04-21T13:02:48.783Z,19.88
2023-04-21T13:03:48.819Z,19.95
2023-04-21T13:04:49.509Z,20.04
2023-04-21T13:05:48.602Z,20.19
2023-04-21T13:06:48.682Z,20.22
2023-04-21T13:07:48.602Z,20.09
2023-04-21T13:08:48.589Z,19.79
2023-04-21T13:09:48.648Z,19.54
2023-04-21T13:10:48.592Z,19.51
2023-04-21T13:11:48.580Z,19.44
2023-04-21T13:12:48.524Z,19.70
2023-04-21T13:13:49.189Z,19.73
2023-04-21T13:14:48.586Z,19.76
2023-04-21T13:15:48.538Z,19.71
2023-04-21T13:16:48.517Z,19.94
2023-04-21T13:17:48.497Z,20.04
2023-04-21T13:18:48.502Z,19.89